Time;durP1;ratioP1;P1;durP2;ratioP2;P2;SDS_P1;SDS_P2;PMS_P1;PMS_P2;Temp;Humidity;BMP_temperature;BMP_pressure;BME280_temperature;BME280_humidity;BME280_pressure;Samples;Min_cycle;Max_cycle;Signal;HPM_P1;HPM_P2
2021/08/12 00:00:18;;;;;;;0.10;0.10;;;;;;;18.04;95.85;99262.22;4781434;29;20061;-81
2021/08/12 00:02:44;;;;;;;0.17;0.17;;;;;;;18.03;95.91;99252.34;4802242;29;20102;-80
2021/08/12 00:05:10;;;;;;;0.10;0.10;;;;;;;18.03;95.71;99241.41;4802540;29;20098;-79
2021/08/12 00:07:36;;;;;;;0.10;0.10;;;;;;;18.02;95.71;99242.44;4806482;29;20104;-78
2021/08/12 00:10:02;;;;;;;0.10;0.10;;;;;;;17.98;96.02;99235.69;4787808;29;20059;-80
2021/08/12 00:12:28;;;;;;;0.10;0.10;;;;;;;18.03;95.87;99227.72;4788725;29;20207;-79
2021/08/12 00:14:54;;;;;;;0.10;0.10;;;;;;;18.02;96.07;99215.09;4768843;29;20447;-78
2021/08/12 00:17:20;;;;;;;0.10;0.10;;;;;;;18.08;95.75;99225.19;4771487;29;20061;-79
2021/08/12 00:19:47;;;;;;;0.10;0.10;;;;;;;18.01;96.17;99215.31;4772529;29;20558;-79
2021/08/12 00:22:13;;;;;;;0.10;0.10;;;;;;;18.00;96.81;99206.25;4802494;29;20126;-78
2021/08/12 00:24:38;;;;;;;0.10;0.10;;;;;;;18.00;96.55;99210.91;4801688;29;20138;-81
2021/08/12 00:27:04;;;;;;;0.10;0.10;;;;;;;17.99;96.67;99207.31;4804077;29;20125;-78
2021/08/12 00:29:31;;;;;;;0.10;0.10;;;;;;;18.02;96.89;99206.88;4787822;29;20502;-77
2021/08/12 00:32:02;;;;;;;0.10;0.10;;;;;;;18.02;96.80;99204.13;4802009;29;20348;-78
2021/08/12 00:34:30;;;;;;;0.10;0.10;;;;;;;18.03;96.82;99205.84;4802886;29;20050;-77
2021/08/12 00:36:56;;;;;;;0.10;0.10;;;;;;;18.01;97.00;99197.00;4787843;29;20134;-78
2021/08/12 00:39:22;;;;;;;0.10;0.10;;;;;;;18.06;97.37;99205.44;4786626;29;20145;-78
2021/08/12 00:41:48;;;;;;;0.10;0.10;;;;;;;18.07;97.33;99187.13;4800265;29;20378;-78
2021/08/12 00:44:15;;;;;;;0.10;0.10;;;;;;;18.07;97.26;99168.81;4783108;29;20118;-78
2021/08/12 00:46:41;;;;;;;0.10;0.10;;;;;;;18.11;97.14;99162.91;4772059;29;20474;-79
2021/08/12 00:49:12;;;;;;;0.10;0.10;;;;;;;18.13;97.77;99138.91;4802828;29;20406;-78
2021/08/12 00:51:41;;;;;;;0.10;0.10;;;;;;;18.06;97.32;99145.25;4800766;29;20049;-79
2021/08/12 00:54:07;;;;;;;0.10;0.10;;;;;;;18.04;97.60;99158.28;4787520;29;20150;-78
2021/08/12 00:56:33;;;;;;;0.10;0.10;;;;;;;18.11;97.38;99171.13;4787644;29;20070;-78
2021/08/12 00:59:00;;;;;;;0.10;0.10;;;;;;;18.11;97.24;99162.91;4787309;29;20115;-79
2021/08/12 01:01:30;;;;;;;0.10;0.10;;;;;;;18.10;97.32;99177.63;4787395;29;20115;-78
2021/08/12 01:04:01;;;;;;;0.10;0.10;;;;;;;18.13;97.47;99191.72;4787743;29;20058;-78
2021/08/12 01:06:30;;;;;;;0.10;0.10;;;;;;;18.14;97.36;99173.44;4786062;29;20038;-79
2021/08/12 01:09:10;;;;;;;0.10;0.10;;;;;;;18.14;97.42;99192.59;4756774;29;20482;-78
2021/08/12 01:11:50;;;;;;;0.10;0.10;;;;;;;18.15;97.24;99197.84;4772190;29;20046;-78
2021/08/12 01:14:27;;;;;;;0.10;0.10;;;;;;;18.19;97.56;99198.25;4790479;29;20086;-78
2021/08/12 01:16:58;;;;;;;0.10;0.10;;;;;;;18.20;97.70;99205.41;4787275;29;20051;-78
2021/08/12 01:19:46;;;;;;;0.10;0.10;;;;;;;18.19;97.21;99187.31;4787245;29;20493;-79
2021/08/12 01:22:14;;;;;;;0.10;0.10;;;;;;;18.21;97.57;99176.97;4772088;29;20047;-79
2021/08/12 01:24:49;;;;;;;0.10;0.10;;;;;;;18.16;97.97;99179.53;4785645;29;20069;-79
2021/08/12 01:27:16;;;;;;;0.10;0.10;;;;;;;18.19;98.08;99170.91;4772116;29;20057;-78
2021/08/12 01:30:07;;;;;;;0.10;0.10;;;;;;;18.19;97.98;99176.38;4770184;29;20127;-79
2021/08/12 01:33:11;;;;;;;0.10;0.10;;;;;;;18.26;98.02;99163.53;4784500;29;20146;-79
2021/08/12 01:35:38;;;;;;;0.10;0.10;;;;;;;18.26;98.21;99149.84;4802433;29;20058;-78
2021/08/12 01:38:17;;;;;;;0.10;0.10;;;;;;;18.17;97.82;99137.41;4802343;29;20493;-79
2021/08/12 01:40:45;;;;;;;0.10;0.10;;;;;;;18.17;98.21;99140.16;4772954;29;20203;-78
2021/08/12 01:43:16;;;;;;;0.10;0.10;;;;;;;18.20;98.79;99140.56;4797021;29;20063;-78
2021/08/12 01:46:01;;;;;;;0.10;0.10;;;;;;;18.23;98.27;99142.88;4762987;29;20130;-80
2021/08/12 01:48:31;;;;;;;0.10;0.10;;;;;;;18.25;98.31;99142.69;4785481;29;20043;-77
2021/08/12 01:50:58;;;;;;;0.10;0.10;;;;;;;18.27;98.44;99135.94;4786399;29;20054;-78
2021/08/12 01:53:24;;;;;;;0.10;0.10;;;;;;;18.24;98.54;99141.00;4795479;29;20043;-77
2021/08/12 01:55:51;;;;;;;0.10;0.10;;;;;;;18.24;98.62;99133.63;4784502;29;20058;-79
2021/08/12 01:58:19;;;;;;;0.10;0.10;;;;;;;18.22;98.32;99115.75;4786832;29;20528;-79
2021/08/12 02:00:48;;;;;;;0.10;0.10;;;;;;;18.20;98.70;99101.44;4784714;29;20466;-79
2021/08/12 02:03:15;;;;;;;0.10;0.10;;;;;;;18.24;98.64;99097.22;4768997;30;20055;-79
2021/08/12 02:05:44;;;;;;;0.10;0.10;;;;;;;18.22;98.98;99107.53;4791162;29;20422;-79
2021/08/12 02:08:10;;;;;;;0.10;0.10;;;;;;;18.18;99.04;99109.88;4770139;29;20047;-80
2021/08/12 02:10:36;;;;;;;0.10;0.10;;;;;;;18.19;99.00;99114.28;4780838;29;20558;-78
2021/08/12 02:13:02;;;;;;;0.10;0.10;;;;;;;18.24;99.08;99119.94;4784455;29;20057;-78
2021/08/12 02:15:28;;;;;;;0.10;0.10;;;;;;;18.24;99.04;99113.63;4755457;29;20501;-79
2021/08/12 02:17:54;;;;;;;0.10;0.10;;;;;;;18.22;98.95;99110.28;4785872;29;20074;-79
2021/08/12 02:20:20;;;;;;;0.10;0.10;;;;;;;18.22;99.05;99116.59;4793712;29;20070;-80
2021/08/12 02:22:47;;;;;;;0.10;0.10;;;;;;;18.20;99.03;99117.84;4786170;29;20059;-79
2021/08/12 02:25:35;;;;;;;0.10;0.10;;;;;;;18.21;99.05;99120.38;4766683;29;20047;-78
2021/08/12 02:28:04;;;;;;;0.10;0.10;;;;;;;18.21;99.22;99130.47;4783543;29;20043;-79
2021/08/12 02:30:36;;;;;;;0.10;0.10;;;;;;;18.23;99.71;99122.91;4770835;29;20506;-78
2021/08/12 02:33:03;;;;;;;0.10;0.10;;;;;;;18.18;99.22;99119.97;4781074;29;20057;-80
2021/08/12 02:35:29;;;;;;;0.10;0.10;;;;;;;18.22;99.70;99121.22;4783466;29;20043;-78
2021/08/12 02:37:57;;;;;;;0.10;0.10;;;;;;;18.23;100.00;99117.44;4785578;29;20050;-79
2021/08/12 02:40:24;;;;;;;0.10;0.10;;;;;;;18.20;99.91;99107.75;4783746;29;20425;-78
2021/08/12 02:42:51;;;;;;;0.10;0.10;;;;;;;18.22;99.57;99104.81;4776714;29;20042;-80
2021/08/12 02:45:18;;;;;;;0.10;0.10;;;;;;;18.21;99.57;99097.63;4784018;29;20074;-79
2021/08/12 02:47:44;;;;;;;0.10;0.10;;;;;;;18.25;100.00;99110.69;4778605;29;20507;-79
2021/08/12 02:50:11;;;;;;;0.10;0.10;;;;;;;18.26;99.80;99106.06;4784334;29;20058;-81
2021/08/12 02:52:39;;;;;;;0.10;0.10;;;;;;;18.22;99.65;99107.53;4783842;29;20062;-80
2021/08/12 02:55:06;;;;;;;0.10;0.10;;;;;;;18.28;99.69;99104.81;4770153;29;20118;-80
2021/08/12 02:57:33;;;;;;;0.10;0.10;;;;;;;18.30;99.67;99099.94;4785847;29;20058;-81
2021/08/12 02:59:59;;;;;;;0.10;0.10;;;;;;;18.31;99.17;99092.56;4799497;29;20114;-79
2021/08/12 03:02:27;;;;;;;0.10;0.10;;;;;;;18.37;99.06;99096.34;4769905;29;20047;-81
2021/08/12 03:04:54;;;;;;;0.10;0.10;;;;;;;18.40;99.39;99101.41;4781128;29;20585;-83
2021/08/12 03:07:20;;;;;;;0.15;0.15;;;;;;;18.44;99.00;99108.94;4781249;29;20103;-80
2021/08/12 03:09:49;;;;;;;0.10;0.10;;;;;;;18.42;98.88;99105.56;4764583;29;20050;-80
2021/08/12 03:12:15;;;;;;;0.10;0.10;;;;;;;18.45;98.89;99116.09;4784021;29;20125;-79
2021/08/12 03:14:41;;;;;;;0.10;0.10;;;;;;;18.48;99.08;99107.47;4769527;29;20170;-79
2021/08/12 03:17:11;;;;;;;0.10;0.10;;;;;;;18.50;98.60;99113.56;4799492;29;20070;-80
2021/08/12 03:19:39;;;;;;;0.10;0.10;;;;;;;18.54;98.69;99124.94;4796653;29;20475;-80
2021/08/12 03:22:09;;;;;;;0.10;0.10;;;;;;;18.50;98.30;99124.53;4778244;29;20507;-79
2021/08/12 03:24:39;;;;;;;0.10;0.10;;;;;;;18.57;98.38;99127.22;4783452;29;20064;-82
2021/08/12 03:27:10;;;;;;;0.10;0.10;;;;;;;18.55;98.30;99127.44;4801013;29;20091;-82
2021/08/12 03:29:38;;;;;;;0.10;0.10;;;;;;;18.59;98.64;99133.31;4799622;29;20047;-80
2021/08/12 03:32:05;;;;;;;0.10;0.10;;;;;;;18.61;98.20;99147.66;4798913;29;20046;-82
2021/08/12 03:34:31;;;;;;;0.10;0.10;;;;;;;18.64;97.73;99146.38;4784509;29;20047;-81
2021/08/12 03:36:57;;;;;;;0.10;0.10;;;;;;;18.65;97.86;99134.34;4785352;29;20431;-79
2021/08/12 03:39:22;;;;;;;0.10;0.10;;;;;;;18.59;97.73;99121.53;4784368;29;20502;-80
2021/08/12 03:41:50;;;;;;;0.10;0.10;;;;;;;18.57;97.87;99135.44;4784230;29;20495;-79
2021/08/12 03:44:17;;;;;;;0.10;0.10;;;;;;;18.65;98.06;99132.47;4784084;29;20046;-78
2021/08/12 03:46:44;;;;;;;0.10;0.10;;;;;;;18.72;97.44;99132.47;4769213;29;20111;-80
2021/08/12 03:49:09;;;;;;;0.10;0.10;;;;;;;18.75;97.88;99142.97;4786904;29;20435;-80
2021/08/12 03:51:36;;;;;;;0.10;0.10;;;;;;;18.76;97.85;99140.03;4800341;29;20604;-80
2021/08/12 03:54:04;;;;;;;0.10;0.10;;;;;;;18.76;97.85;99136.47;4785680;29;20051;-80
2021/08/12 03:56:29;;;;;;;0.10;0.10;;;;;;;18.72;97.44;99143.41;4798788;29;20501;-80
2021/08/12 03:58:55;;;;;;;0.10;0.10;;;;;;;18.74;97.82;99146.78;4731945;30;20035;-79
2021/08/12 04:01:21;;;;;;;0.10;0.10;;;;;;;18.80;97.33;99134.97;4780976;29;20536;-82
2021/08/12 04:03:48;;;;;;;0.10;0.10;;;;;;;18.86;96.96;99125.88;4765941;29;20070;-79
2021/08/12 04:06:15;;;;;;;0.10;0.10;;;;;;;18.89;96.93;99128.19;4799779;29;20077;-80
2021/08/12 04:08:41;;;;;;;0.10;0.10;;;;;;;18.89;96.95;99128.19;4785173;29;20055;-83
2021/08/12 04:11:07;;;;;;;0.10;0.10;;;;;;;18.87;97.00;99130.31;4786017;29;20398;-80
2021/08/12 04:13:32;;;;;;;0.10;0.10;;;;;;;18.88;97.20;99129.25;4784769;29;20050;-80
2021/08/12 04:15:58;;;;;;;0.10;0.10;;;;;;;18.88;96.90;99126.50;4800236;29;20186;-80
2021/08/12 04:18:25;;;;;;;0.10;0.10;;;;;;;18.92;97.04;99133.22;4786951;29;20051;-83
2021/08/12 04:20:52;;;;;;;0.10;0.10;;;;;;;18.95;97.26;99137.44;4786115;29;20506;-82
2021/08/12 04:23:18;;;;;;;0.10;0.10;;;;;;;18.96;97.32;99139.94;4786561;29;20058;-81
2021/08/12 04:25:47;;;;;;;0.10;0.10;;;;;;;18.91;96.61;99134.28;4795767;29;20061;-79
2021/08/12 04:28:16;;;;;;;0.10;0.10;;;;;;;18.97;96.58;99141.63;4800828;29;20514;-82
2021/08/12 04:30:42;;;;;;;0.10;0.10;;;;;;;19.00;96.67;99135.69;4799570;29;20149;-82
2021/08/12 04:33:10;;;;;;;0.10;0.10;;;;;;;19.02;96.40;99133.59;4786976;29;20502;-81
2021/08/12 04:35:39;;;;;;;0.10;0.10;;;;;;;19.09;96.67;99121.78;4775221;29;20051;-82
2021/08/12 04:38:05;;;;;;;0.10;0.10;;;;;;;19.19;96.49;99122.13;4775188;29;20407;-81
2021/08/12 04:40:31;;;;;;;0.10;0.10;;;;;;;19.15;95.87;99115.41;4764549;30;20081;-83
2021/08/12 04:42:57;;;;;;;0.20;0.20;;;;;;;19.19;96.26;99108.41;4769782;29;20042;-80
2021/08/12 04:45:24;;;;;;;0.10;0.10;;;;;;;19.20;96.11;99108.22;4766819;29;20142;-82
2021/08/12 04:47:51;;;;;;;0.10;0.10;;;;;;;19.24;95.63;99114.09;4768293;29;20050;-79
2021/08/12 04:50:17;;;;;;;0.10;0.10;;;;;;;19.31;95.77;99120.38;4801375;29;20054;-84
2021/08/12 04:52:44;;;;;;;0.10;0.10;;;;;;;19.36;95.87;99106.00;4802195;29;20506;-83
2021/08/12 04:55:10;;;;;;;0.10;0.10;;;;;;;19.39;95.50;99078.97;4777221;29;20051;-80
2021/08/12 04:57:36;;;;;;;0.10;0.10;;;;;;;19.34;95.38;99048.63;4801126;29;20043;-80
2021/08/12 05:00:03;;;;;;;0.20;0.20;;;;;;;19.38;95.62;99054.50;4801628;29;20050;-80
2021/08/12 05:02:32;;;;;;;0.10;0.10;;;;;;;19.32;95.83;99067.22;4788265;29;20760;-80
2021/08/12 05:05:04;;;;;;;0.10;0.10;;;;;;;19.47;95.86;99054.03;4787226;29;21370;-83
2021/08/12 05:07:35;;;;;;;0.20;0.20;;;;;;;19.54;95.69;99042.16;4783344;29;20070;-85
2021/08/12 05:10:08;;;;;;;0.10;0.10;;;;;;;19.68;95.34;99032.78;4791710;29;20210;-83
2021/08/12 05:12:34;;;;;;;0.10;0.10;;;;;;;19.78;95.12;99016.63;4787495;29;20053;-82
2021/08/12 05:15:00;;;;;;;0.10;0.10;;;;;;;19.84;94.53;99009.41;4802710;29;20133;-85
2021/08/12 05:17:28;;;;;;;0.10;0.10;;;;;;;19.82;94.27;99004.16;4804079;29;20073;-81
2021/08/12 05:20:04;;;;;;;0.10;0.10;;;;;;;19.93;93.47;99006.16;4797159;29;20050;-83
2021/08/12 05:22:31;;;;;;;0.10;0.10;;;;;;;20.04;93.92;99017.41;4773344;29;20050;-81
2021/08/12 05:24:57;;;;;;;0.10;0.10;;;;;;;19.97;92.66;99015.59;4808306;29;20134;-83
2021/08/12 05:27:23;;;;;;;0.10;0.10;;;;;;;20.04;93.00;99014.69;4792564;29;20074;-84
2021/08/12 05:29:50;;;;;;;0.10;0.10;;;;;;;20.05;92.88;99019.13;4797100;29;20059;-85
2021/08/12 05:32:19;;;;;;;0.10;0.10;;;;;;;20.10;92.75;99002.78;4777575;29;20071;-85
2021/08/12 05:34:46;;;;;;;0.10;0.10;;;;;;;20.06;91.68;98985.13;4802313;29;20050;-83
2021/08/12 05:37:12;;;;;;;0.10;0.10;;;;;;;20.07;91.31;98993.09;4805645;29;20067;-83
2021/08/12 05:39:40;;;;;;;0.10;0.10;;;;;;;20.07;92.38;99008.72;4926795;24;20022;-82
2021/08/12 05:42:06;;;;;;;0.10;0.10;;;;;;;20.28;91.81;99011.03;4766840;29;20190;-82
2021/08/12 05:44:32;;;;;;;0.10;0.10;;;;;;;20.43;91.36;99007.88;4785194;29;20067;-82
2021/08/12 05:47:04;;;;;;;0.10;0.10;;;;;;;20.65;90.48;98995.34;4789599;29;20059;-83
2021/08/12 05:49:40;;;;;;;0.20;0.20;;;;;;;20.81;89.52;98988.38;4767819;29;20054;-84
2021/08/12 05:52:07;;;;;;;0.20;0.20;;;;;;;21.03;88.44;98979.59;4782497;29;20128;-83
2021/08/12 05:54:37;;;;;;;0.10;0.10;;;;;;;21.19;88.02;98982.47;4787716;29;20043;-84
2021/08/12 05:57:04;;;;;;;0.10;0.10;;;;;;;21.19;86.55;98992.66;4779246;29;20054;-85
2021/08/12 05:59:33;;;;;;;0.10;0.10;;;;;;;21.22;85.39;98983.94;4781097;29;20066;-85
2021/08/12 06:02:04;;;;;;;0.10;0.10;;;;;;;21.33;85.28;98994.13;4736830;29;20161;-84
2021/08/12 06:04:39;;;;;;;0.10;0.10;;;;;;;21.33;86.39;99005.13;4785172;29;20518;-83
2021/08/12 06:07:09;;;;;;;0.10;0.10;;;;;;;21.45;86.39;99009.81;4796592;29;20545;-84
2021/08/12 06:09:35;;;;;;;0.10;0.10;;;;;;;21.49;85.70;99013.75;4791165;29;20137;-83
2021/08/12 06:12:07;;;;;;;0.10;0.10;;;;;;;21.48;85.33;99020.34;4783825;29;20050;-85
2021/08/12 06:14:35;;;;;;;0.10;0.10;;;;;;;21.51;85.45;99036.38;4775827;29;20051;-85
2021/08/12 06:17:05;;;;;;;0.10;0.10;;;;;;;21.50;85.82;99051.19;4767607;29;20046;-83
2021/08/12 06:19:34;;;;;;;0.10;0.10;;;;;;;21.59;85.14;99067.09;4778959;29;20080;-82
2021/08/12 06:22:02;;;;;;;0.10;0.10;;;;;;;21.68;85.62;99070.34;4784329;29;20054;-84
2021/08/12 06:24:31;;;;;;;0.10;0.10;;;;;;;21.63;84.84;99054.53;4791849;29;20057;-84
2021/08/12 06:26:58;;;;;;;0.10;0.10;;;;;;;21.66;83.86;99050.50;4777811;29;20065;-84
2021/08/12 06:29:24;;;;;;;0.10;0.10;;;;;;;21.71;83.13;99063.53;4778366;29;20055;-83
2021/08/12 06:31:51;;;;;;;0.10;0.10;;;;;;;21.68;83.59;99059.31;4779218;29;20062;-85
2021/08/12 06:34:20;;;;;;;0.10;0.10;;;;;;;21.63;83.59;99050.97;4819043;29;20038;-84
2021/08/12 06:36:48;;;;;;;0.10;0.10;;;;;;;21.52;84.78;99054.53;4790000;29;20536;-85
2021/08/12 06:39:16;;;;;;;0.10;0.10;;;;;;;21.42;84.84;99061.44;4797280;29;20051;-85
2021/08/12 06:41:43;;;;;;;0.10;0.10;;;;;;;21.40;85.03;99074.63;4793195;29;20050;-83
2021/08/12 06:44:10;;;;;;;0.10;0.10;;;;;;;21.38;85.13;99076.75;4764723;29;20066;-82
2021/08/12 06:46:38;;;;;;;0.10;0.10;;;;;;;21.33;86.00;99073.88;4775008;29;20051;-82
2021/08/12 06:49:10;;;;;;;0.10;0.10;;;;;;;21.16;86.38;99073.66;4788162;29;20066;-82
2021/08/12 06:51:44;;;;;;;0.10;0.10;;;;;;;21.11;86.27;99080.97;4779183;29;20047;-85
2021/08/12 06:54:12;;;;;;;0.10;0.10;;;;;;;21.06;87.40;99087.16;4794658;29;20237;-86
2021/08/12 06:56:38;;;;;;;0.10;0.10;;;;;;;21.07;87.33;99091.56;4774986;29;20054;-84
2021/08/12 06:59:06;;;;;;;0.10;0.10;;;;;;;21.06;86.93;99094.53;4789268;29;20502;-84
2021/08/12 07:01:33;;;;;;;0.10;0.10;;;;;;;21.07;87.34;99088.00;4781539;29;20054;-85
2021/08/12 07:03:59;;;;;;;0.10;0.10;;;;;;;21.07;87.28;99085.25;4777796;29;20050;-86
2021/08/12 07:06:27;;;;;;;0.10;0.10;;;;;;;21.09;86.64;99083.09;4805704;29;20132;-83
2021/08/12 07:08:54;;;;;;;0.10;0.10;;;;;;;21.13;87.47;99089.78;4762994;29;20072;-84
2021/08/12 07:11:23;;;;;;;0.10;0.10;;;;;;;21.19;87.36;99084.19;4776218;29;20043;-84
2021/08/12 07:13:50;;;;;;;0.10;0.10;;;;;;;21.19;87.10;99077.88;4800642;29;20042;-84
2021/08/12 07:16:17;;;;;;;0.10;0.10;;;;;;;21.30;86.65;99079.81;4793468;29;20059;-84
2021/08/12 07:18:50;;;;;;;0.10;0.10;;;;;;;21.35;86.12;99065.38;4817311;29;20053;-84
2021/08/12 07:21:19;;;;;;;0.10;0.10;;;;;;;21.36;86.48;99043.16;4775206;29;20066;-85
2021/08/12 07:23:50;;;;;;;0.10;0.10;;;;;;;21.37;86.32;99025.59;4779573;29;20073;-88
2021/08/12 07:26:19;;;;;;;0.10;0.10;;;;;;;21.46;86.21;99028.81;4784091;30;20075;-85
2021/08/12 07:28:49;;;;;;;0.10;0.10;;;;;;;21.57;86.88;99024.41;4772869;29;20015;-83
2021/08/12 07:31:19;;;;;;;0.10;0.10;;;;;;;21.76;85.11;99028.72;4794284;29;20043;-83
2021/08/12 07:33:48;;;;;;;0.10;0.10;;;;;;;21.77;84.63;99015.81;4773374;29;20026;-85
2021/08/12 07:36:16;;;;;;;0.10;0.10;;;;;;;21.65;84.77;99040.56;4766797;29;20058;-85
2021/08/12 07:38:44;;;;;;;0.10;0.10;;;;;;;21.67;85.41;99046.66;4788536;29;20077;-84
2021/08/12 07:41:12;;;;;;;0.10;0.10;;;;;;;21.75;85.37;99050.97;4755805;29;20367;-85
2021/08/12 07:43:40;;;;;;;0.10;0.10;;;;;;;21.69;84.70;99043.69;4789357;29;20051;-85
2021/08/12 07:46:08;;;;;;;0.10;0.10;;;;;;;21.83;84.36;99045.09;4766520;29;20043;-85
2021/08/12 07:48:37;;;;;;;0.10;0.10;;;;;;;21.84;84.09;99047.63;4790231;29;20422;-85
2021/08/12 07:51:04;;;;;;;0.10;0.10;;;;;;;21.82;84.15;99044.25;4781444;29;20043;-85
2021/08/12 07:53:31;;;;;;;0.10;0.10;;;;;;;21.94;84.61;99019.53;4768000;29;20055;-83
2021/08/12 07:55:59;;;;;;;0.10;0.10;;;;;;;21.87;84.77;99025.13;4797886;29;20046;-83
2021/08/12 07:58:25;;;;;;;0.17;0.17;;;;;;;22.01;85.01;99042.25;4781591;29;20074;-83
2021/08/12 08:00:53;;;;;;;0.10;0.10;;;;;;;22.09;83.93;99054.81;4818061;29;20046;-83
2021/08/12 08:03:20;;;;;;;0.10;0.10;;;;;;;22.07;83.98;99067.97;4794497;29;20051;-83
2021/08/12 08:05:50;;;;;;;0.10;0.10;;;;;;;21.96;85.04;99077.06;4765435;29;20061;-84
2021/08/12 08:08:17;;;;;;;0.20;0.20;;;;;;;22.08;84.30;99069.63;4798172;29;20046;-85
2021/08/12 08:10:47;;;;;;;0.20;0.20;;;;;;;22.35;82.54;99065.34;4784795;29;20047;-84
2021/08/12 08:13:15;;;;;;;0.20;0.20;;;;;;;22.67;82.32;99083.31;4778599;29;20110;-84
2021/08/12 08:15:45;;;;;;;0.10;0.10;;;;;;;22.82;80.76;99079.00;4799125;29;20142;-85
2021/08/12 08:18:14;;;;;;;0.10;0.10;;;;;;;22.78;81.55;99066.78;4755705;29;20070;-83
2021/08/12 08:21:03;;;;;;;0.10;0.10;;;;;;;22.76;81.78;99051.56;4787591;29;20043;-83
2021/08/12 08:23:33;;;;;;;0.10;0.10;;;;;;;22.60;81.75;99062.28;4812664;29;20098;-86
2021/08/12 08:26:01;;;;;;;0.10;0.10;;;;;;;22.49;80.93;99065.91;4835711;24;20055;-84
2021/08/12 08:28:28;;;;;;;0.13;0.13;;;;;;;22.51;80.41;99068.41;4782299;30;20480;-86
2021/08/12 08:30:56;;;;;;;0.10;0.10;;;;;;;22.25;81.56;99076.13;4799251;29;20056;-86
2021/08/12 08:33:35;;;;;;;0.10;0.10;;;;;;;22.17;82.12;99095.75;4787912;30;20070;-83
2021/08/12 08:36:07;;;;;;;0.10;0.10;;;;;;;21.90;82.98;99092.59;4779038;30;20070;-85
2021/08/12 08:38:34;;;;;;;0.10;0.10;;;;;;;21.63;84.05;99106.00;4776613;29;20067;-83
2021/08/12 08:41:02;;;;;;;0.10;0.10;;;;;;;21.48;84.81;99102.84;4770477;30;20060;-85
2021/08/12 08:43:34;;;;;;;0.10;0.10;;;;;;;21.56;85.39;99102.50;4784570;30;20059;-84
2021/08/12 08:46:09;;;;;;;0.10;0.10;;;;;;;21.63;84.94;99089.47;4774960;30;20056;-85
2021/08/12 08:48:41;;;;;;;0.10;0.10;;;;;;;21.83;85.71;99084.50;4758955;30;20040;-84
2021/08/12 08:51:15;;;;;;;0.10;0.10;;;;;;;21.92;84.26;99077.53;4770857;29;20116;-85
2021/08/12 08:53:44;;;;;;;0.10;0.10;;;;;;;22.08;84.22;99072.38;4747355;30;20048;-85
2021/08/12 08:56:13;;;;;;;0.10;0.10;;;;;;;22.15;84.07;99065.69;4746346;30;20117;-85
2021/08/12 08:58:43;;;;;;;0.10;0.10;;;;;;;22.14;83.43;99074.22;4761450;30;20094;-86
2021/08/12 09:01:15;;;;;;;0.10;0.10;;;;;;;21.94;83.52;99079.22;4782857;30;20118;-83
2021/08/12 09:03:55;;;;;;;0.20;0.20;;;;;;;21.91;84.20;99083.28;4766165;30;20052;-84
2021/08/12 09:06:33;;;;;;;0.10;0.10;;;;;;;21.87;85.77;99073.84;4756560;29;20119;-84
2021/08/12 09:09:46;;;;;;;0.10;0.10;;;;;;;21.94;85.36;99068.19;4818035;29;20035;-86
2021/08/12 09:12:23;;;;;;;0.10;0.10;;;;;;;21.94;86.25;99084.72;4798724;29;20051;-84
2021/08/12 09:15:02;;;;;;;0.10;0.10;;;;;;;21.92;87.17;99072.03;4793892;29;20043;-84
2021/08/12 09:17:36;;;;;;;0.10;0.10;;;;;;;21.96;88.33;99066.06;4804318;29;20078;-86
2021/08/12 09:20:13;;;;;;;0.10;0.10;;;;;;;21.92;87.65;99066.53;4788600;29;20064;-83
2021/08/12 09:22:55;;;;;;;0.10;0.10;;;;;;;21.94;87.06;99068.19;4780487;29;20046;-85
2021/08/12 09:25:35;;;;;;;0.13;0.13;;;;;;;21.91;87.59;99080.53;4806810;29;20027;-84
2021/08/12 09:28:26;;;;;;;0.20;0.20;;;;;;;21.87;87.20;99091.19;4804035;29;20051;-84
2021/08/12 09:30:59;;;;;;;0.20;0.20;;;;;;;22.05;87.49;99092.16;4800580;29;20059;-84
2021/08/12 09:33:40;;;;;;;0.10;0.10;;;;;;;22.25;86.55;99081.63;5107826;24;20133;-86
2021/08/12 09:36:27;;;;;;;0.20;0.20;;;;;;;22.65;83.77;99086.34;4830091;29;20056;-86
2021/08/12 09:39:23;;;;;;;0.30;0.30;;;;;;;23.08;81.16;99085.88;4792948;29;20073;-82
2021/08/12 09:41:54;;;;;;;0.20;0.20;;;;;;;23.33;77.97;99091.03;4815858;29;20106;-88
2021/08/12 09:44:38;;;;;;;0.20;0.20;;;;;;;23.24;77.59;99089.72;4813925;29;20054;-84
2021/08/12 09:47:08;;;;;;;0.10;0.10;;;;;;;23.16;78.90;99095.66;4811223;29;20066;-88
2021/08/12 09:49:43;;;;;;;0.10;0.10;;;;;;;23.21;78.41;99097.66;4802004;29;20571;-85
2021/08/12 09:52:28;;;;;;;0.10;0.10;;;;;;;23.24;77.35;99091.66;4783276;29;20046;-85
2021/08/12 09:55:08;;;;;;;0.10;0.10;;;;;;;23.21;78.17;99100.41;4802425;29;20051;-84
2021/08/12 09:57:52;;;;;;;0.20;0.20;;;;;;;23.31;78.09;99093.19;4805592;29;20106;-81
2021/08/12 10:00:25;;;;;;;0.20;0.20;;;;;;;23.29;78.25;99089.84;5079170;24;20873;-86
2021/08/12 10:02:53;;;;;;;0.20;0.20;;;;;;;23.46;77.51;99075.22;4821696;29;20095;-85
2021/08/12 10:05:21;;;;;;;0.20;0.20;;;;;;;23.60;77.76;99087.63;4796602;29;20070;-84
2021/08/12 10:07:52;;;;;;;0.10;0.10;;;;;;;23.61;77.61;99092.03;4809784;29;20039;-86
2021/08/12 10:10:24;;;;;;;0.20;0.20;;;;;;;23.71;75.66;99100.53;4770672;30;20090;-85
2021/08/12 10:12:53;;;;;;;0.10;0.10;;;;;;;23.75;75.08;99096.19;4797177;29;20403;-85
2021/08/12 10:15:33;;;;;;;0.10;0.10;;;;;;;23.87;73.61;99103.53;4799072;29;20055;-83
2021/08/12 10:21:40;;;;;;;0.10;0.10;;;;;;;23.99;72.53;99101.53;5038998;24;20050;-83
2021/08/12 10:24:40;;;;;;;0.10;0.10;;;;;;;23.94;72.99;99104.19;4791643;29;20058;-83
2021/08/12 10:27:12;;;;;;;0.10;0.10;;;;;;;23.82;74.46;99110.66;4819114;29;20050;-82
2021/08/12 10:29:43;;;;;;;0.10;0.10;;;;;;;23.67;74.57;99099.34;4786608;29;20065;-84
2021/08/12 10:32:37;;;;;;;0.10;0.10;;;;;;;23.61;74.84;99108.59;5069349;24;20165;-83
2021/08/12 10:35:09;;;;;;;0.10;0.10;;;;;;;23.23;76.17;99106.53;4807228;29;20066;-85
2021/08/12 10:40:55;;;;;;;0.10;0.10;;;;;;;23.01;77.92;99106.41;4802604;29;20038;-83
2021/08/12 10:43:27;;;;;;;0.10;0.10;;;;;;;22.96;77.75;99109.88;4777113;30;20042;-83
2021/08/12 10:45:59;;;;;;;0.10;0.10;;;;;;;22.87;78.08;99106.63;4778820;29;20055;-85
2021/08/12 10:48:28;;;;;;;0.10;0.10;;;;;;;22.57;77.14;99100.50;4764220;29;20107;-84
2021/08/12 10:51:16;;;;;;;0.10;0.10;;;;;;;22.40;77.88;99092.13;4764616;30;20046;-83
2021/08/12 10:54:18;;;;;;;0.10;0.10;;;;;;;22.40;79.33;99092.13;4774419;29;20074;-83
2021/08/12 10:56:48;;;;;;;0.10;0.10;;;;;;;22.36;79.52;99107.47;4788283;30;20055;-84
2021/08/12 11:03:35;;;;;;;0.10;0.10;;;;;;;22.06;81.08;99113.09;4802282;29;20467;-87
2021/08/12 11:06:21;;;;;;;0.10;0.10;;;;;;;21.90;82.11;99114.63;4801580;29;20043;-84
2021/08/12 11:09:00;;;;;;;0.10;0.10;;;;;;;21.80;83.59;99123.50;4757031;29;20050;-83
2021/08/12 11:11:33;;;;;;;0.10;0.10;;;;;;;21.64;86.24;99133.25;4784573;30;20498;-83
2021/08/12 11:14:11;;;;;;;0.10;0.10;;;;;;;21.50;87.37;99122.69;4777141;30;20079;-85
2021/08/12 11:16:41;;;;;;;0.10;0.10;;;;;;;21.34;88.62;99125.03;4789917;29;20184;-84
2021/08/12 11:19:09;;;;;;;0.10;0.10;;;;;;;21.34;89.00;99127.78;4790844;29;20074;-86
2021/08/12 11:21:41;;;;;;;0.10;0.10;;;;;;;21.37;88.95;99134.75;4796697;29;20050;-83
2021/08/12 11:24:10;;;;;;;0.10;0.10;;;;;;;21.38;89.72;99137.25;4785459;29;20078;-83
2021/08/12 11:26:45;;;;;;;0.10;0.10;;;;;;;21.43;90.08;99126.41;4790827;29;20134;-84
2021/08/12 11:29:39;;;;;;;0.10;0.10;;;;;;;21.40;89.88;99132.38;4782677;29;20059;-83
2021/08/12 11:32:15;;;;;;;0.10;0.10;;;;;;;21.33;90.53;99128.00;4770100;29;20070;-83
2021/08/12 11:34:52;;;;;;;0.10;0.10;;;;;;;21.25;90.56;99131.94;4759766;30;20087;-84
2021/08/12 11:37:27;;;;;;;0.20;0.20;;;;;;;21.34;91.32;99125.03;4772897;30;20051;-83
2021/08/12 11:40:02;;;;;;;0.10;0.10;;;;;;;21.31;88.69;99128.22;4773987;30;20062;-85
2021/08/12 11:42:33;;;;;;;0.20;0.20;;;;;;;21.33;87.90;99128.88;4758193;29;20180;-84
2021/08/12 11:45:09;;;;;;;0.10;0.10;;;;;;;21.49;87.61;99132.03;4801683;29;20052;-85
2021/08/12 11:47:38;;;;;;;0.10;0.10;;;;;;;21.56;87.16;99130.00;4779877;29;20049;-85
2021/08/12 11:50:08;;;;;;;0.20;0.20;;;;;;;21.74;85.17;99129.94;4795683;29;20063;-83
2021/08/12 11:52:38;;;;;;;0.20;0.20;;;;;;;22.20;84.09;99127.50;4776161;29;20113;-83
2021/08/12 11:55:21;;;;;;;0.20;0.20;;;;;;;22.24;81.66;99117.69;4776398;29;20043;-84
2021/08/12 11:57:49;;;;;;;0.20;0.20;;;;;;;22.59;80.63;99120.38;4779889;29;20055;-85
2021/08/12 12:00:27;;;;;;;0.20;0.20;;;;;;;22.89;80.73;99131.22;4804032;29;20063;-85